Time;durP1;ratioP1;P1;durP2;ratioP2;P2;SDS_P1;SDS_P2;PMS_P1;PMS_P2;Temp;Humidity;BMP_temperature;BMP_pressure;BME280_temperature;BME280_humidity;BME280_pressure;Samples;Min_cycle;Max_cycle;Signal;HPM_P1;HPM_P2
2023/01/10 00:00:51;;;;;;;2.95;1.23;;;9.30;99.90;;;;;;5054567;28;20028;-73
2023/01/10 00:03:18;;;;;;;1.63;0.60;;;9.20;99.90;;;;;;5054915;28;20441;-74
2023/01/10 00:05:44;;;;;;;2.33;0.98;;;9.00;99.90;;;;;;5054797;28;20033;-73
2023/01/10 00:08:14;;;;;;;1.83;0.85;;;8.90;99.90;;;;;;5054535;28;20072;-74
2023/01/10 00:10:40;;;;;;;3.88;1.23;;;8.80;99.90;;;;;;5054768;28;20060;-73
2023/01/10 00:13:24;;;;;;;1.50;0.70;;;8.70;99.90;;;;;;5054833;28;20028;-74
2023/01/10 00:15:52;;;;;;;1.55;0.95;;;8.60;99.90;;;;;;5054753;28;20029;-74
2023/01/10 00:18:18;;;;;;;1.90;1.10;;;8.60;99.90;;;;;;5051386;28;20033;-74
2023/01/10 00:20:45;;;;;;;0.93;0.80;;;8.60;99.90;;;;;;5034684;28;20030;-74
2023/01/10 00:23:12;;;;;;;2.90;1.10;;;8.50;99.90;;;;;;5034674;28;20425;-74
2023/01/10 00:25:38;;;;;;;1.92;1.27;;;8.40;99.90;;;;;;5034707;28;20089;-74
2023/01/10 00:30:39;;;;;;;3.75;1.38;;;8.10;99.90;;;;;;5039515;28;20115;-74
2023/01/10 00:33:07;;;;;;;5.47;2.45;;;8.10;99.90;;;;;;5054884;28;20025;-74
2023/01/10 00:35:33;;;;;;;4.35;2.78;;;8.00;99.90;;;;;;5054547;28;20051;-74
2023/01/10 00:38:06;;;;;;;5.32;2.90;;;7.90;99.90;;;;;;5054484;28;20029;-74
2023/01/10 00:40:32;;;;;;;7.32;3.45;;;7.80;99.90;;;;;;5054504;28;20465;-74
2023/01/10 00:45:44;;;;;;;5.80;3.65;;;7.70;99.90;;;;;;5054324;28;20376;-73
2023/01/10 00:48:12;;;;;;;6.70;4.15;;;7.70;99.90;;;;;;5054371;28;20029;-74
2023/01/10 00:50:38;;;;;;;10.15;5.50;;;7.60;99.90;;;;;;5054249;28;20115;-73
2023/01/10 00:53:04;;;;;;;6.72;3.45;;;7.60;99.90;;;;;;5054283;28;20146;-74
2023/01/10 00:55:31;;;;;;;10.82;5.78;;;7.50;99.90;;;;;;5054282;28;20029;-74
2023/01/10 00:57:57;;;;;;;9.73;5.63;;;7.40;99.90;;;;;;5054178;28;20057;-74
2023/01/10 01:00:23;;;;;;;14.38;7.97;;;7.40;99.90;;;;;;5054210;28;20493;-74
2023/01/10 01:02:50;;;;;;;7.10;4.30;;;7.30;99.90;;;;;;5053996;28;20029;-74
2023/01/10 01:05:17;;;;;;;3.95;2.38;;;7.30;99.90;;;;;;5054120;28;20471;-74
2023/01/10 01:07:43;;;;;;;3.08;2.00;;;7.10;99.90;;;;;;5054038;28;20075;-74
2023/01/10 01:10:25;;;;;;;5.38;2.25;;;7.10;99.90;;;;;;5054630;28;20080;-74
2023/01/10 01:13:04;;;;;;;6.78;2.70;;;7.10;99.90;;;;;;5057989;28;20478;-74
2023/01/10 01:15:33;;;;;;;6.13;2.65;;;6.90;99.90;;;;;;5058213;28;20017;-74
2023/01/10 01:17:59;;;;;;;7.40;3.10;;;6.70;99.90;;;;;;5057210;28;20037;-74
2023/01/10 01:20:26;;;;;;;4.05;1.92;;;6.70;99.90;;;;;;5038129;28;20036;-74
2023/01/10 01:22:52;;;;;;;5.75;1.77;;;6.60;99.90;;;;;;5037782;28;20029;-74
2023/01/10 01:25:18;;;;;;;7.47;2.40;;;6.60;99.90;;;;;;5037908;28;20108;-74
2023/01/10 01:27:44;;;;;;;4.45;1.60;;;6.50;99.90;;;;;;5037904;28;20029;-73
2023/01/10 01:30:11;;;;;;;4.05;1.33;;;6.40;99.90;;;;;;5040329;28;20158;-73
2023/01/10 01:32:37;;;;;;;2.72;1.13;;;6.40;99.90;;;;;;5057621;28;20077;-74
2023/01/10 01:35:05;;;;;;;2.75;0.95;;;6.40;99.90;;;;;;5057631;28;20021;-74
2023/01/10 01:37:30;;;;;;;2.80;1.10;;;6.20;99.90;;;;;;5057681;28;20025;-74
2023/01/10 01:39:56;;;;;;;3.70;2.10;;;6.20;99.90;;;;;;5057497;28;20481;-74
2023/01/10 01:42:31;;;;;;;1.63;0.60;;;6.10;99.90;;;;;;5057559;28;20086;-74
2023/01/10 01:45:16;;;;;;;2.22;1.17;;;6.00;99.90;;;;;;5057530;28;20053;-74
2023/01/10 01:47:51;;;;;;;2.28;0.90;;;5.90;99.90;;;;;;5057407;28;20517;-74
2023/01/10 01:50:33;;;;;;;3.65;1.65;;;5.80;99.90;;;;;;5057279;28;20564;-74
2023/01/10 01:53:03;;;;;;;3.90;1.30;;;5.90;99.90;;;;;;5057416;28;20021;-74
2023/01/10 01:55:33;;;;;;;4.50;1.50;;;5.80;99.90;;;;;;5057261;28;20032;-74
2023/01/10 01:58:05;;;;;;;2.45;0.70;;;5.70;99.90;;;;;;5057211;28;20032;-74
2023/01/10 02:00:31;;;;;;;4.43;0.93;;;5.60;99.90;;;;;;5055830;28;20044;-74
2023/01/10 02:02:59;;;;;;;8.45;1.63;;;5.60;99.90;;;;;;5055797;28;20048;-75
2023/01/10 02:05:26;;;;;;;5.15;2.05;;;5.60;99.90;;;;;;5057226;28;20037;-75
2023/01/10 02:07:55;;;;;;;5.10;1.80;;;5.60;99.90;;;;;;5056823;28;20041;-74
2023/01/10 02:10:28;;;;;;;3.35;1.38;;;5.60;99.90;;;;;;5056927;28;20483;-74
2023/01/10 02:12:57;;;;;;;3.60;1.73;;;5.50;99.90;;;;;;5056877;28;20025;-74
2023/01/10 02:15:23;;;;;;;7.85;3.65;;;5.40;99.90;;;;;;5056894;28;20032;-74
2023/01/10 02:17:51;;;;;;;5.45;2.42;;;5.40;99.90;;;;;;5056947;28;20029;-74
2023/01/10 02:20:20;;;;;;;5.18;2.70;;;5.40;99.90;;;;;;5037452;28;20030;-74
2023/01/10 02:23:07;;;;;;;7.70;2.83;;;5.40;99.90;;;;;;5035772;28;20120;-74
2023/01/10 02:25:57;;;;;;;6.38;2.63;;;5.40;99.90;;;;;;5036767;28;20411;-74
2023/01/10 02:28:39;;;;;;;4.78;1.80;;;5.40;99.90;;;;;;5036742;28;20036;-74
2023/01/10 02:31:18;;;;;;;3.55;1.15;;;5.30;99.90;;;;;;5046947;28;20029;-74
2023/01/10 02:33:53;;;;;;;3.60;2.05;;;5.30;99.90;;;;;;5056582;28;20025;-74
2023/01/10 02:36:34;;;;;;;4.72;1.42;;;5.40;99.90;;;;;;5056597;28;20397;-74
2023/01/10 02:39:28;;;;;;;6.20;2.47;;;5.30;99.90;;;;;;5056523;28;20029;-74
2023/01/10 02:42:06;;;;;;;6.22;2.50;;;5.40;99.90;;;;;;5056559;28;20064;-74
2023/01/10 02:44:46;;;;;;;11.75;3.22;;;5.40;99.90;;;;;;5056355;28;20029;-74
2023/01/10 02:47:13;;;;;;;5.00;2.25;;;5.40;99.90;;;;;;5056325;28;20029;-74
2023/01/10 02:49:43;;;;;;;12.55;3.25;;;5.40;99.90;;;;;;5056230;28;20033;-74
2023/01/10 02:52:10;;;;;;;6.25;2.47;;;5.40;99.90;;;;;;5056283;28;20463;-74
2023/01/10 02:54:37;;;;;;;8.68;3.58;;;5.30;99.90;;;;;;5056233;28;20021;-74
2023/01/10 02:57:08;;;;;;;8.77;3.03;;;5.30;99.90;;;;;;5056094;28;20028;-75
2023/01/10 02:59:50;;;;;;;5.10;2.28;;;5.30;99.90;;;;;;5056128;28;20358;-75
2023/01/10 03:02:36;;;;;;;4.65;1.23;;;5.30;99.90;;;;;;5056165;28;20052;-75
2023/01/10 03:05:26;;;;;;;3.05;1.17;;;5.40;99.90;;;;;;5056132;28;20029;-75
2023/01/10 03:08:18;;;;;;;3.75;1.90;;;5.40;99.90;;;;;;5055820;28;20044;-75
2023/01/10 03:10:52;;;;;;;2.72;1.13;;;5.30;99.90;;;;;;5055718;28;20063;-74
2023/01/10 03:13:33;;;;;;;1.95;1.05;;;5.30;99.90;;;;;;5055821;28;20494;-75
2023/01/10 03:16:01;;;;;;;3.88;1.77;;;5.30;99.90;;;;;;5055763;28;20027;-75
2023/01/10 03:18:33;;;;;;;6.53;1.88;;;5.30;99.90;;;;;;5051176;28;20079;-74
2023/01/10 03:21:03;;;;;;;5.85;2.17;;;5.40;99.90;;;;;;5035686;28;20082;-75
2023/01/10 03:23:32;;;;;;;7.43;2.45;;;5.40;99.90;;;;;;5035617;28;20053;-75
2023/01/10 03:25:59;;;;;;;7.78;2.72;;;5.30;99.90;;;;;;5035480;28;20030;-75
2023/01/10 03:28:30;;;;;;;7.00;2.58;;;5.30;99.90;;;;;;5035534;28;20553;-75
2023/01/10 03:31:05;;;;;;;11.55;3.10;;;5.30;99.90;;;;;;5044399;28;20060;-75
2023/01/10 03:33:33;;;;;;;6.57;2.53;;;5.30;99.90;;;;;;5055235;28;20083;-75
2023/01/10 03:36:08;;;;;;;10.48;2.60;;;5.30;99.90;;;;;;5055375;28;20046;-75
2023/01/10 03:38:51;;;;;;;4.25;2.08;;;5.30;99.90;;;;;;5055395;28;20052;-75
2023/01/10 03:41:46;;;;;;;6.82;2.45;;;5.30;99.90;;;;;;5055289;28;20383;-74
2023/01/10 03:47:11;;;;;;;8.63;4.00;;;5.30;99.90;;;;;;5055184;28;20025;-75
2023/01/10 03:49:41;;;;;;;6.28;2.95;;;5.30;99.90;;;;;;5055142;28;20356;-75
2023/01/10 03:52:11;;;;;;;10.40;4.25;;;5.40;99.90;;;;;;5055316;28;20037;-75
2023/01/10 03:54:37;;;;;;;9.05;2.95;;;5.40;99.90;;;;;;5055181;28;20032;-75
2023/01/10 03:57:04;;;;;;;8.38;3.20;;;5.40;99.90;;;;;;5054836;28;20029;-75
2023/01/10 03:59:31;;;;;;;5.47;1.90;;;5.40;99.90;;;;;;5037023;28;20043;-75
2023/01/10 04:01:57;;;;;;;4.63;1.80;;;5.40;99.90;;;;;;5054830;28;20057;-75
2023/01/10 04:04:23;;;;;;;2.65;1.70;;;5.40;99.90;;;;;;5054912;28;20064;-75
2023/01/10 04:06:48;;;;;;;6.18;2.35;;;5.50;99.90;;;;;;5054711;28;20033;-75
2023/01/10 04:09:14;;;;;;;5.10;2.08;;;5.40;99.90;;;;;;5054681;28;20139;-75
2023/01/10 04:11:40;;;;;;;3.65;1.80;;;5.40;99.90;;;;;;5054590;28;20111;-75
2023/01/10 04:14:06;;;;;;;3.17;1.30;;;5.30;99.90;;;;;;5054781;28;20490;-75
2023/01/10 04:16:32;;;;;;;3.25;1.50;;;5.10;99.90;;;;;;5054605;28;20036;-75
2023/01/10 04:18:58;;;;;;;6.45;3.00;;;5.20;99.90;;;;;;5045974;28;20014;-75
2023/01/10 04:21:24;;;;;;;4.63;1.80;;;5.30;99.90;;;;;;5034578;28;20467;-75
2023/01/10 04:23:50;;;;;;;4.03;2.05;;;5.30;99.90;;;;;;5034655;28;20089;-74
2023/01/10 04:26:16;;;;;;;5.13;1.15;;;5.40;99.90;;;;;;5034537;28;20402;-74
2023/01/10 04:28:42;;;;;;;2.50;0.95;;;5.30;99.90;;;;;;5034680;28;20029;-75
2023/01/10 04:31:08;;;;;;;2.22;1.10;;;5.30;99.90;;;;;;5044921;28;20108;-74
2023/01/10 04:33:34;;;;;;;1.42;0.82;;;5.30;99.90;;;;;;5054478;28;20128;-74
2023/01/10 04:36:00;;;;;;;1.10;0.80;;;5.40;99.90;;;;;;5054391;28;20064;-74
2023/01/10 04:38:25;;;;;;;3.60;0.98;;;5.30;99.90;;;;;;5054318;28;20059;-74
2023/01/10 04:40:55;;;;;;;3.05;1.25;;;5.30;99.90;;;;;;5054335;28;20029;-75
2023/01/10 04:43:23;;;;;;;2.38;1.10;;;5.30;99.90;;;;;;5054383;28;20386;-74
2023/01/10 04:45:48;;;;;;;2.50;1.20;;;5.40;99.90;;;;;;5053751;28;20032;-74
2023/01/10 04:48:15;;;;;;;2.90;0.73;;;5.40;99.90;;;;;;5054294;28;20033;-74
2023/01/10 04:50:41;;;;;;;3.90;1.20;;;5.50;99.90;;;;;;5054178;28;20351;-74
2023/01/10 04:53:07;;;;;;;1.83;0.85;;;5.40;99.90;;;;;;5054358;28;20337;-74
2023/01/10 04:55:34;;;;;;;1.20;0.75;;;5.40;99.90;;;;;;5054252;28;20357;-74
2023/01/10 04:58:01;;;;;;;4.82;3.10;;;5.40;99.90;;;;;;5054019;28;20037;-74
2023/01/10 05:00:27;;;;;;;4.15;2.50;;;5.50;99.90;;;;;;5054113;28;20033;-74
2023/01/10 05:02:56;;;;;;;3.63;1.67;;;5.40;99.90;;;;;;5054127;28;20028;-74
2023/01/10 05:05:23;;;;;;;3.78;2.53;;;5.30;99.90;;;;;;5054097;28;20032;-74
2023/01/10 05:07:49;;;;;;;5.82;2.78;;;5.30;99.90;;;;;;5053897;28;20123;-74
2023/01/10 05:10:15;;;;;;;3.80;2.75;;;5.30;99.90;;;;;;5054076;28;20084;-74
2023/01/10 05:12:41;;;;;;;6.03;3.13;;;5.20;99.90;;;;;;5053990;28;20033;-74
2023/01/10 05:15:07;;;;;;;6.35;2.92;;;5.30;99.90;;;;;;5054105;28;20028;-74
2023/01/10 05:17:34;;;;;;;6.90;2.80;;;5.20;99.90;;;;;;5053903;28;20095;-74
2023/01/10 05:19:59;;;;;;;10.45;4.38;;;5.30;99.90;;;;;;5036800;28;20037;-74
2023/01/10 05:22:25;;;;;;;13.20;5.70;;;5.20;99.90;;;;;;5033898;28;20030;-74
2023/01/10 05:24:51;;;;;;;14.27;6.07;;;5.30;99.90;;;;;;5034113;28;20475;-74
2023/01/10 05:27:17;;;;;;;20.90;7.88;;;5.30;99.90;;;;;;5033961;28;20049;-74
2023/01/10 05:29:43;;;;;;;14.52;5.45;;;5.20;99.90;;;;;;5033908;28;20052;-74
2023/01/10 05:32:09;;;;;;;17.52;7.28;;;5.20;99.90;;;;;;5031811;28;20038;-74
2023/01/10 05:34:35;;;;;;;24.77;9.18;;;5.10;99.90;;;;;;5033907;28;20036;-74
2023/01/10 05:37:01;;;;;;;23.85;10.68;;;5.20;99.90;;;;;;5033799;28;20443;-75
2023/01/10 05:39:27;;;;;;;23.17;9.45;;;5.20;99.90;;;;;;5033836;28;20398;-74
2023/01/10 05:41:53;;;;;;;19.25;8.57;;;5.30;99.90;;;;;;5033832;28;20025;-74
2023/01/10 05:44:19;;;;;;;15.13;6.78;;;5.30;99.90;;;;;;5033929;28;20124;-74
2023/01/10 05:46:45;;;;;;;18.67;8.63;;;5.30;99.90;;;;;;5033706;28;20037;-74
2023/01/10 05:49:11;;;;;;;18.23;6.95;;;5.20;99.90;;;;;;5033694;28;20398;-74
2023/01/10 05:51:37;;;;;;;16.98;7.28;;;5.20;99.90;;;;;;5033686;28;20100;-74
2023/01/10 05:54:03;;;;;;;20.70;7.28;;;5.20;99.90;;;;;;5033755;28;20539;-74
2023/01/10 05:56:29;;;;;;;20.00;8.27;;;5.20;99.90;;;;;;5033571;28;20037;-74
2023/01/10 05:58:56;;;;;;;24.00;9.65;;;5.20;99.90;;;;;;5036822;28;20082;-74
2023/01/10 06:01:21;;;;;;;23.50;9.55;;;5.20;99.90;;;;;;5037178;28;20018;-74
2023/01/10 06:03:47;;;;;;;31.95;10.77;;;5.20;99.90;;;;;;5037067;28;20041;-73
2023/01/10 06:06:13;;;;;;;36.47;13.10;;;5.20;99.90;;;;;;5037014;28;20026;-74
2023/01/10 06:08:39;;;;;;;34.85;15.18;;;5.20;99.90;;;;;;5056344;28;20041;-73
2023/01/10 06:11:06;;;;;;;27.40;12.38;;;5.10;99.90;;;;;;5056878;28;20429;-73
2023/01/10 06:13:32;;;;;;;29.63;10.55;;;5.00;99.90;;;;;;5056938;28;20028;-74
2023/01/10 06:15:59;;;;;;;33.05;15.98;;;5.00;99.90;;;;;;5056909;28;20102;-74
2023/01/10 06:18:25;;;;;;;40.40;16.58;;;5.00;99.90;;;;;;5056635;28;20046;-74
2023/01/10 06:20:51;;;;;;;36.08;15.57;;;5.00;99.90;;;;;;5056803;28;20064;-74
2023/01/10 06:23:17;;;;;;;34.65;16.83;;;4.90;99.90;;;;;;5056582;28;20041;-74
2023/01/10 06:25:43;;;;;;;33.03;14.68;;;4.80;99.90;;;;;;5053570;28;20074;-74
2023/01/10 06:28:12;;;;;;;40.90;15.95;;;4.80;99.90;;;;;;5055626;28;20444;-74
2023/01/10 06:30:40;;;;;;;57.97;26.05;;;4.90;99.90;;;;;;5056722;28;20082;-74
2023/01/10 06:33:07;;;;;;;54.60;25.38;;;4.90;99.90;;;;;;5056558;28;20561;-74
2023/01/10 06:35:34;;;;;;;48.00;22.38;;;4.90;99.90;;;;;;5056167;28;20029;-74
2023/01/10 06:38:00;;;;;;;49.28;21.15;;;4.90;99.90;;;;;;5056305;28;20040;-74
2023/01/10 06:40:27;;;;;;;46.72;19.73;;;4.90;99.90;;;;;;5055375;28;20025;-73
2023/01/10 06:42:53;;;;;;;48.03;21.88;;;4.90;99.90;;;;;;5056108;28;20082;-73
2023/01/10 06:45:19;;;;;;;40.03;20.20;;;4.90;99.90;;;;;;5047781;28;20061;-73
2023/01/10 06:47:45;;;;;;;36.80;16.95;;;5.00;99.90;;;;;;5035920;28;20029;-73
2023/01/10 06:50:12;;;;;;;41.97;18.40;;;4.90;99.90;;;;;;5071820;28;20031;-73
2023/01/10 06:52:39;;;;;;;32.28;15.90;;;4.90;99.90;;;;;;5075957;28;20020;-73
2023/01/10 06:55:05;;;;;;;30.73;16.90;;;5.00;99.90;;;;;;5074424;28;20020;-73
2023/01/10 06:57:34;;;;;;;29.27;12.57;;;5.00;99.90;;;;;;5053941;28;20087;-73
2023/01/10 07:00:10;;;;;;;34.00;19.58;;;5.00;99.90;;;;;;5055110;28;20049;-73
2023/01/10 07:02:39;;;;;;;33.97;13.15;;;5.00;99.90;;;;;;5055592;28;20032;-72
2023/01/10 07:05:05;;;;;;;26.55;11.38;;;5.00;99.90;;;;;;5056208;28;20453;-74
2023/01/10 07:07:32;;;;;;;25.80;11.75;;;5.10;99.90;;;;;;5053851;28;20049;-74
2023/01/10 07:09:58;;;;;;;25.63;12.32;;;5.20;99.90;;;;;;5052986;28;20041;-74
2023/01/10 07:12:24;;;;;;;21.58;10.38;;;5.30;99.90;;;;;;5055527;28;20017;-73
2023/01/10 07:14:50;;;;;;;23.52;10.98;;;5.40;99.90;;;;;;5055430;28;20029;-73
2023/01/10 07:17:16;;;;;;;24.83;10.70;;;5.30;99.90;;;;;;5055404;28;20025;-72
2023/01/10 07:19:42;;;;;;;26.88;9.93;;;5.30;99.90;;;;;;5056080;28;20060;-72
2023/01/10 07:22:08;;;;;;;19.10;8.10;;;5.30;99.90;;;;;;5055991;28;20112;-72
2023/01/10 07:24:34;;;;;;;38.67;9.30;;;5.30;99.90;;;;;;5055476;28;20382;-72
2023/01/10 07:27:00;;;;;;;18.80;6.53;;;5.40;99.90;;;;;;5056055;28;20482;-72
2023/01/10 07:29:26;;;;;;;20.42;7.45;;;5.40;99.90;;;;;;5055923;28;20080;-71
2023/01/10 07:31:52;;;;;;;19.65;7.75;;;5.40;99.90;;;;;;5055874;28;20103;-71
2023/01/10 07:34:17;;;;;;;15.25;6.22;;;5.40;99.90;;;;;;5071196;28;20031;-72
2023/01/10 07:36:44;;;;;;;20.77;8.90;;;5.50;99.90;;;;;;5055753;28;20108;-72
2023/01/10 07:39:10;;;;;;;40.65;10.25;;;5.40;99.90;;;;;;5055716;28;20033;-72
2023/01/10 07:41:36;;;;;;;40.90;18.23;;;5.40;99.90;;;;;;5055763;28;20565;-72
2023/01/10 07:44:02;;;;;;;37.13;16.33;;;5.40;99.90;;;;;;5055774;28;20056;-72
2023/01/10 07:46:28;;;;;;;51.63;17.30;;;5.50;99.90;;;;;;5055639;28;20722;-72
2023/01/10 07:48:54;;;;;;;33.92;15.43;;;5.40;99.90;;;;;;5053113;28;20024;-72
2023/01/10 07:51:20;;;;;;;40.88;20.23;;;5.50;99.90;;;;;;5044149;28;20115;-72
2023/01/10 07:53:46;;;;;;;48.22;20.15;;;5.60;99.90;;;;;;5038178;28;20026;-72
2023/01/10 07:56:12;;;;;;;63.75;30.80;;;5.50;99.90;;;;;;5055280;28;20031;-72
2023/01/10 07:58:38;;;;;;;57.13;25.33;;;5.50;99.90;;;;;;5055316;28;20029;-72
2023/01/10 08:01:05;;;;;;;77.25;29.83;;;5.60;99.90;;;;;;5052137;28;20044;-72
2023/01/10 08:03:32;;;;;;;63.70;27.92;;;5.60;99.90;;;;;;5054436;28;20061;-71
2023/01/10 08:06:05;;;;;;;42.00;18.95;;;5.70;99.90;;;;;;5055267;28;20032;-71
2023/01/10 08:08:33;;;;;;;43.10;19.58;;;5.70;99.90;;;;;;5055220;28;20075;-72
2023/01/10 08:11:01;;;;;;;36.33;16.95;;;5.80;99.90;;;;;;5054261;28;20398;-72
2023/01/10 08:13:28;;;;;;;102.03;38.40;;;5.80;99.90;;;;;;5056254;28;20044;-71
2023/01/10 08:15:53;;;;;;;89.22;35.22;;;5.80;99.90;;;;;;5074501;28;20029;-71
2023/01/10 08:18:21;;;;;;;84.53;33.50;;;5.80;99.90;;;;;;5060924;28;20082;-71
2023/01/10 08:20:50;;;;;;;103.60;40.35;;;5.80;99.90;;;;;;5053190;28;20090;-70
2023/01/10 08:23:20;;;;;;;70.60;29.05;;;5.80;99.90;;;;;;5053840;28;20040;-70
2023/01/10 08:25:46;;;;;;;98.10;36.08;;;5.80;99.90;;;;;;5054301;28;20025;-71
2023/01/10 08:28:13;;;;;;;70.07;27.23;;;5.90;99.90;;;;;;5053412;28;20029;-72
2023/01/10 08:30:40;;;;;;;45.10;19.20;;;5.80;99.90;;;;;;5060677;28;20485;-72
2023/01/10 08:33:07;;;;;;;32.65;13.65;;;5.90;99.90;;;;;;5074151;28;20082;-71
2023/01/10 08:35:41;;;;;;;33.65;14.35;;;5.90;99.90;;;;;;5052491;28;20035;-71
2023/01/10 08:38:08;;;;;;;23.98;10.25;;;5.80;99.90;;;;;;5054207;28;20383;-72
2023/01/10 08:40:34;;;;;;;29.70;10.93;;;5.80;99.90;;;;;;5051132;28;20445;-71
2023/01/10 08:43:11;;;;;;;34.25;11.30;;;5.80;99.90;;;;;;5054317;28;20594;-72
2023/01/10 08:45:37;;;;;;;31.35;10.93;;;5.80;99.90;;;;;;5034010;28;20037;-71
2023/01/10 08:48:04;;;;;;;32.35;14.68;;;6.00;99.90;;;;;;5034010;28;20029;-72
2023/01/10 08:50:31;;;;;;;38.53;19.02;;;5.90;99.90;;;;;;5037839;28;20025;-72
2023/01/10 08:52:58;;;;;;;42.17;17.90;;;6.00;99.90;;;;;;5053961;28;20025;-71
2023/01/10 08:55:25;;;;;;;39.83;19.90;;;6.00;99.90;;;;;;5053567;28;20482;-71
2023/01/10 08:57:54;;;;;;;52.38;22.63;;;6.00;99.90;;;;;;5053920;28;20033;-72
2023/01/10 09:00:20;;;;;;;56.83;23.00;;;6.00;99.90;;;;;;5052954;28;20029;-71
2023/01/10 09:02:46;;;;;;;46.40;22.83;;;6.00;99.90;;;;;;5053372;28;20036;-72
2023/01/10 09:05:12;;;;;;;46.22;22.15;;;6.00;99.90;;;;;;5047424;28;20029;-72
2023/01/10 09:07:40;;;;;;;55.05;25.58;;;6.00;99.90;;;;;;5034238;28;20523;-71
2023/01/10 09:10:08;;;;;;;57.95;25.25;;;5.90;99.90;;;;;;5034510;28;20033;-72
2023/01/10 09:15:18;;;;;;;56.25;24.63;;;5.90;99.90;;;;;;5033543;28;20026;-72
2023/01/10 09:17:44;;;;;;;59.42;26.25;;;5.90;99.90;;;;;;5033750;28;20018;-72
2023/01/10 09:20:11;;;;;;;66.45;29.77;;;6.00;99.90;;;;;;5051684;28;20033;-72
2023/01/10 09:22:37;;;;;;;71.93;33.13;;;6.00;99.90;;;;;;5053602;28;20033;-72
2023/01/10 09:25:05;;;;;;;70.78;30.23;;;6.00;99.90;;;;;;5053384;28;20029;-72
2023/01/10 09:27:32;;;;;;;76.72;30.42;;;6.10;99.90;;;;;;5053668;28;20036;-72
2023/01/10 09:29:58;;;;;;;79.28;30.65;;;6.10;99.90;;;;;;5053124;28;20021;-72
2023/01/10 09:32:24;;;;;;;76.88;31.15;;;6.10;99.90;;;;;;5055932;28;20490;-71
2023/01/10 09:34:52;;;;;;;67.22;30.92;;;6.10;99.90;;;;;;5057392;28;20047;-72
2023/01/10 09:37:18;;;;;;;67.00;28.67;;;6.10;99.90;;;;;;5057440;28;20033;-72
2023/01/10 09:39:44;;;;;;;62.35;28.27;;;6.10;99.90;;;;;;5057234;28;20477;-72
2023/01/10 09:42:35;;;;;;;46.08;22.52;;;6.20;99.90;;;;;;5049533;28;20029;-72
2023/01/10 09:45:27;;;;;;;49.45;22.98;;;6.10;99.90;;;;;;5041780;28;20086;-73
2023/01/10 09:48:07;;;;;;;64.43;27.90;;;6.10;99.90;;;;;;5048201;28;20028;-73
2023/01/10 09:51:03;;;;;;;63.85;26.35;;;6.10;99.90;;;;;;5055402;28;20044;-73
2023/01/10 09:53:33;;;;;;;137.93;58.40;;;6.10;99.90;;;;;;5056781;28;20052;-70
2023/01/10 09:56:00;;;;;;;47.17;21.65;;;6.20;99.90;;;;;;5057396;28;20025;-72
2023/01/10 09:58:29;;;;;;;59.92;28.17;;;6.20;99.90;;;;;;5071986;28;20494;-72
2023/01/10 10:01:03;;;;;;;47.45;23.45;;;6.20;99.90;;;;;;5056684;28;20467;-69
2023/01/10 10:03:59;;;;;;;45.72;21.23;;;6.20;99.90;;;;;;5056553;28;20475;-70
2023/01/10 10:06:25;;;;;;;44.35;18.13;;;6.10;99.90;;;;;;5050573;28;20029;-69
2023/01/10 10:08:52;;;;;;;49.38;18.45;;;6.20;99.90;;;;;;5056745;28;20033;-70
2023/01/10 10:11:23;;;;;;;23.58;9.65;;;6.20;99.90;;;;;;5056282;28;20041;-70
2023/01/10 10:14:14;;;;;;;27.70;11.05;;;6.20;99.90;;;;;;5056445;28;20043;-70
2023/01/10 10:16:46;;;;;;;34.95;17.55;;;6.20;99.90;;;;;;5056592;28;20505;-70
2023/01/10 10:19:28;;;;;;;37.95;18.75;;;6.10;99.90;;;;;;5056327;28;20032;-70
2023/01/10 10:22:04;;;;;;;23.27;12.77;;;6.20;99.90;;;;;;5056287;28;20166;-70
2023/01/10 10:24:41;;;;;;;40.83;18.55;;;6.20;99.90;;;;;;5056397;28;20036;-70
2023/01/10 10:27:23;;;;;;;32.05;13.82;;;6.20;99.90;;;;;;5056831;28;20032;-70
2023/01/10 10:29:49;;;;;;;26.83;11.57;;;6.30;99.90;;;;;;5056311;28;20033;-70
2023/01/10 10:32:17;;;;;;;25.48;11.30;;;6.20;99.90;;;;;;5056380;28;20028;-70
2023/01/10 10:35:01;;;;;;;18.17;7.95;;;6.20;99.90;;;;;;5056182;28;20047;-70
2023/01/10 10:37:31;;;;;;;11.68;6.10;;;6.10;99.90;;;;;;5056397;28;20179;-70
2023/01/10 10:40:03;;;;;;;10.10;4.87;;;6.30;99.90;;;;;;5056578;28;20469;-70
2023/01/10 10:42:34;;;;;;;11.63;5.53;;;6.30;99.90;;;;;;5055725;28;20720;-70
2023/01/10 10:45:19;;;;;;;12.13;6.40;;;6.30;99.90;;;;;;5055847;28;20029;-70
2023/01/10 10:47:52;;;;;;;7.93;3.83;;;6.30;99.90;;;;;;5053941;28;20048;-70
2023/01/10 10:50:33;;;;;;;6.00;3.25;;;6.30;99.90;;;;;;5051343;28;20391;-70
2023/01/10 10:53:02;;;;;;;7.55;3.75;;;6.20;99.90;;;;;;5050618;28;20021;-70
2023/01/10 10:55:35;;;;;;;5.45;2.60;;;6.30;99.90;;;;;;5054880;28;20040;-70
2023/01/10 10:58:09;;;;;;;5.70;2.90;;;6.30;99.90;;;;;;5054841;28;20538;-70
2023/01/10 11:00:40;;;;;;;8.70;4.03;;;6.20;99.90;;;;;;5055544;28;20025;-70
2023/01/10 11:03:14;;;;;;;15.05;7.10;;;6.30;99.90;;;;;;5055614;28;20037;-71
2023/01/10 11:05:43;;;;;;;60.90;30.50;;;6.30;99.90;;;;;;5054995;28;20059;-70
2023/01/10 11:08:12;;;;;;;36.53;16.98;;;6.40;99.90;;;;;;5052251;28;20056;-70
2023/01/10 11:10:41;;;;;;;14.35;5.30;;;6.40;99.90;;;;;;5051759;28;20056;-74
2023/01/10 11:13:20;;;;;;;15.45;5.47;;;6.30;99.90;;;;;;5054650;28;20536;-73
2023/01/10 11:15:49;;;;;;;19.58;7.57;;;6.30;99.90;;;;;;5052601;28;20047;-69
2023/01/10 11:18:24;;;;;;;13.38;7.10;;;6.30;99.90;;;;;;5049689;28;20095;-68
2023/01/10 11:21:02;;;;;;;19.98;7.25;;;6.20;99.90;;;;;;5051726;28;20025;-71
2023/01/10 11:23:31;;;;;;;17.35;6.97;;;6.20;99.90;;;;;;5051777;28;20036;-70
2023/01/10 11:25:57;;;;;;;14.23;5.53;;;6.30;99.90;;;;;;5052246;28;20098;-70
2023/01/10 11:28:28;;;;;;;7.55;3.72;;;6.30;99.90;;;;;;5053137;28;20440;-69
2023/01/10 11:30:55;;;;;;;13.23;5.95;;;6.30;99.90;;;;;;5054040;28;20035;-70
2023/01/10 11:33:25;;;;;;;14.38;5.28;;;6.40;99.90;;;;;;5052846;28;20082;-69
2023/01/10 11:36:05;;;;;;;6.28;2.17;;;6.40;99.90;;;;;;5054378;28;20025;-68
2023/01/10 11:38:31;;;;;;;4.85;2.92;;;6.30;99.90;;;;;;5052773;28;20032;-69
2023/01/10 11:41:04;;;;;;;6.88;2.47;;;6.30;99.90;;;;;;5053579;28;20083;-69
2023/01/10 11:43:37;;;;;;;6.38;2.90;;;6.30;99.90;;;;;;5052930;28;20033;-69
2023/01/10 11:46:24;;;;;;;10.75;4.78;;;6.40;99.90;;;;;;5053928;28;20107;-68
2023/01/10 11:48:59;;;;;;;6.45;3.10;;;6.30;99.90;;;;;;5052973;28;20028;-69
2023/01/10 11:51:28;;;;;;;11.32;5.75;;;6.30;99.90;;;;;;5053580;28;20029;-68
2023/01/10 11:53:58;;;;;;;5.13;2.50;;;6.30;99.90;;;;;;5053436;28;20033;-69
2023/01/10 11:56:35;;;;;;;12.27;4.43;;;6.20;99.90;;;;;;5051642;28;20029;-69
2023/01/10 11:59:13;;;;;;;9.82;4.70;;;6.20;99.90;;;;;;5048727;28;20461;-69
2023/01/10 12:01:43;;;;;;;13.07;6.07;;;6.20;99.90;;;;;;5050037;28;20032;-69
2023/01/10 12:04:21;;;;;;;13.43;5.43;;;6.20;99.90;;;;;;5053636;28;20035;-69
2023/01/10 12:06:50;;;;;;;11.80;4.80;;;6.30;99.90;;;;;;5052330;28;20029;-69
2023/01/10 12:09:32;;;;;;;6.97;3.45;;;6.30;99.90;;;;;;5051934;28;20074;-69
2023/01/10 12:12:18;;;;;;;18.17;6.53;;;6.10;99.90;;;;;;5050752;28;20029;-69
2023/01/10 12:14:45;;;;;;;8.00;3.15;;;6.20;99.90;;;;;;5045819;28;20032;-69
2023/01/10 12:17:31;;;;;;;7.47;3.65;;;6.20;99.90;;;;;;5043816;28;20029;-68
2023/01/10 12:20:00;;;;;;;9.52;4.30;;;6.30;99.90;;;;;;5051666;28;20402;-68
2023/01/10 12:22:48;;;;;;;9.02;5.28;;;6.20;99.90;;;;;;5033914;28;20029;-68
2023/01/10 12:25:17;;;;;;;12.32;6.65;;;6.20;99.90;;;;;;5053419;28;20514;-68
2023/01/10 12:27:50;;;;;;;7.72;3.40;;;6.20;99.90;;;;;;5053395;28;20020;-68
2023/01/10 12:30:48;;;;;;;6.00;3.70;;;6.20;99.90;;;;;;5052548;28;20029;-70
2023/01/10 12:33:22;;;;;;;12.98;5.60;;;6.20;99.90;;;;;;5050352;28;20116;-67
2023/01/10 12:36:09;;;;;;;5.90;2.70;;;6.20;99.90;;;;;;5053596;28;20028;-67
2023/01/10 12:44:38;;;;;;;43.83;21.75;;;6.10;99.90;;;;;;5054242;28;20112;-67
2023/01/10 12:47:23;;;;;;;23.40;10.13;;;6.00;99.90;;;;;;5053833;28;20410;-67
2023/01/10 12:50:13;;;;;;;24.08;11.77;;;6.10;99.90;;;;;;5053966;28;20061;-67
2023/01/10 12:52:58;;;;;;;;;;;6.00;99.90;;;;;;5045934;28;20041;-67
2023/01/10 12:55:29;;;;;;;17.42;6.93;;;6.00;99.90;;;;;;5077400;28;19909;-67
2023/01/10 12:57:57;;;;;;;;;;;6.10;99.90;;;;;;5054157;28;20068;-67
2023/01/10 13:00:29;;;;;;;11.10;5.32;;;6.00;99.90;;;;;;5053846;28;19912;-67
2023/01/10 13:02:58;;;;;;;26.90;10.40;;;6.00;99.90;;;;;;5051592;28;20031;-67
2023/01/10 13:05:27;;;;;;;5.40;2.40;;;6.10;99.90;;;;;;5053889;28;20078;-67
2023/01/10 13:08:10;;;;;;;11.20;5.57;;;6.10;99.90;;;;;;5068423;28;20102;-67
2023/01/10 13:10:42;;;;;;;14.95;5.20;;;6.00;99.90;;;;;;5055919;28;20030;-67
2023/01/10 13:13:18;;;;;;;14.70;7.30;;;6.10;99.90;;;;;;5056775;28;20070;-67
2023/01/10 13:15:53;;;;;;;15.45;7.53;;;6.10;99.90;;;;;;5043155;28;20032;-67
2023/01/10 13:18:28;;;;;;;9.48;5.65;;;6.00;99.90;;;;;;5062108;28;20055;-67
2023/01/10 13:21:14;;;;;;;8.93;5.55;;;6.10;99.90;;;;;;5055736;28;20032;-67